Mussala Top/Sommet, Bulgaria
Current Conditions -  °F | °C
As of 12:30 AM on Saturday 20 Dec 2014 (Local Time) from LBSF Reporting Station
Haze Haze  
Wind Chill: 30°   Ceiling: Unl
Heat Index: 34°   Visibility: 3mi
Dew Point: 30°   Wind: 5mph
Humidity: 87%   Direction: 230°SW
Pressure: 30.15"   Gusts: NA
Location:  42.18°N, 23.58°E
Report Text: LBSF 192130Z 23004KT 5000 BR NSC 01/M01 Q1021 NOSIG
Loading
Personal Weather Stations






























Interactive Weather Map New forecast layout! Learn more

10-Day Weather Forecast

Advertisements
Track Severe Weather on mobile